Time;durP1;ratioP1;P1;durP2;ratioP2;P2;SDS_P1;SDS_P2;PMS_P1;PMS_P2;Temp;Humidity;BMP_temperature;BMP_pressure;BME280_temperature;BME280_humidity;BME280_pressure;Samples;Min_cycle;Max_cycle;Signal;HPM_P1;HPM_P2
2023/05/31 00:01:22;;;;;;;;;4.60;4.60;;;;;17.23;46.80;99331.94;7672165;22;98354;-65
2023/05/31 00:04:25;;;;;;;;;6.60;6.00;;;;;17.16;47.06;99336.75;7698010;22;96424;-65
2023/05/31 00:07:28;;;;;;;;;8.00;8.00;;;;;17.17;47.00;99332.94;7699107;22;96343;-65
2023/05/31 00:10:32;;;;;;;;;7.00;6.40;;;;;17.12;47.25;99330.16;7672085;22;98339;-65
2023/05/31 00:13:38;;;;;;;;;6.00;5.40;;;;;17.12;47.58;99338.31;7699377;22;96166;-64
2023/05/31 00:16:42;;;;;;;;;6.80;6.00;;;;;17.02;47.82;99334.63;7672462;22;96419;-65
2023/05/31 00:20:06;;;;;;;;;3.00;3.00;;;;;16.87;48.91;99333.38;7699479;22;96483;-64
2023/05/31 00:23:10;;;;;;;;;7.00;6.00;;;;;16.77;49.00;99321.50;7698214;22;96166;-65
2023/05/31 00:26:13;;;;;;;;;7.67;6.00;;;;;16.73;49.35;99315.75;7672591;22;96269;-64
2023/05/31 00:29:20;;;;;;;;;7.40;7.00;;;;;16.76;49.14;99312.50;7699122;22;96854;-65
2023/05/31 00:32:23;;;;;;;;;5.50;5.00;;;;;16.69;49.40;99311.88;7698915;22;96262;-65
2023/05/31 00:35:26;;;;;;;;;6.00;5.00;;;;;16.63;49.15;99317.50;7678908;22;99675;-64
2023/05/31 00:38:30;;;;;;;;;5.60;5.00;;;;;16.46;49.81;99323.78;7671711;22;97247;-66
2023/05/31 00:41:33;;;;;;;;;6.80;6.80;;;;;16.46;49.82;99320.22;7699847;22;97448;-65
2023/05/31 00:44:38;;;;;;;;;7.20;6.00;;;;;16.42;50.46;99317.16;7671439;22;96379;-65
2023/05/31 00:47:42;;;;;;;;;6.20;6.00;;;;;16.38;50.40;99326.06;7694767;22;99944;-65
2023/05/31 00:50:46;;;;;;;;;8.00;7.75;;;;;16.33;50.56;99320.53;7671901;22;96977;-64
2023/05/31 00:53:50;;;;;;;;;8.00;7.00;;;;;16.23;50.95;99320.38;7699066;22;96183;-65
2023/05/31 00:56:54;;;;;;;;;7.75;7.25;;;;;16.19;51.12;99330.13;7671965;22;96350;-66
2023/05/31 00:59:59;;;;;;;;;10.40;10.40;;;;;16.15;51.35;99328.97;7691586;22;96306;-65
2023/05/31 01:03:04;;;;;;;;;8.40;8.00;;;;;16.17;51.29;99335.00;7697975;22;96246;-65
2023/05/31 01:06:08;;;;;;;;;7.75;7.75;;;;;16.13;51.52;99337.38;7709411;22;96312;-65
2023/05/31 01:09:11;;;;;;;;;10.00;9.00;;;;;16.09;51.60;99341.66;7737500;22;96232;-65
2023/05/31 01:12:26;;;;;;;;;7.00;6.75;;;;;16.07;51.90;99345.72;7736033;22;96210;-66
2023/05/31 01:15:35;;;;;;;;;9.00;9.00;;;;;16.05;51.81;99345.94;7710353;22;96890;-65
2023/05/31 01:18:46;;;;;;;;;7.20;7.00;;;;;16.01;52.08;99342.91;7736004;22;96227;-64
2023/05/31 01:22:02;;;;;;;;;11.00;10.00;;;;;15.96;52.45;99350.97;7709931;22;99016;-65
2023/05/31 01:25:31;;;;;;;;;8.40;8.40;;;;;15.93;52.78;99347.94;7737459;22;96379;-65
2023/05/31 01:28:38;;;;;;;;;7.60;7.00;;;;;15.95;52.44;99343.88;7708877;22;98345;-65
2023/05/31 01:31:42;;;;;;;;;10.50;10.50;;;;;15.91;52.96;99355.50;7709067;22;98325;-65
2023/05/31 01:34:46;;;;;;;;;9.00;8.00;;;;;15.77;52.63;99332.41;7735581;22;96895;-65
2023/05/31 01:37:51;;;;;;;;;8.00;8.00;;;;;15.88;51.95;99354.06;7710462;22;96233;-65
2023/05/31 01:40:57;;;;;;;;;7.00;6.00;;;;;15.85;52.38;99346.41;7707951;22;96412;-66
2023/05/31 01:44:04;;;;;;;;;7.75;7.75;;;;;15.74;53.04;99343.75;7707962;22;98279;-65
2023/05/31 01:47:10;;;;;;;;;7.00;6.00;;;;;15.61;53.27;99336.72;7736500;22;96981;-65
2023/05/31 01:50:14;;;;;;;;;7.00;7.00;;;;;15.61;53.04;99353.03;7708848;22;96559;-65
2023/05/31 01:53:18;;;;;;;;;6.00;6.00;;;;;15.53;52.72;99356.97;7683960;22;98503;-65
2023/05/31 01:56:23;;;;;;;;;5.20;5.00;;;;;15.43;52.69;99362.19;7736740;22;96232;-66
2023/05/31 01:59:31;;;;;;;;;9.00;7.60;;;;;15.36;52.67;99355.22;7710299;22;96820;-66
2023/05/31 02:02:35;;;;;;;;;6.00;5.40;;;;;15.37;52.62;99362.31;7736354;22;96750;-64
2023/05/31 02:05:55;;;;;;;;;5.00;5.00;;;;;15.39;52.61;99360.19;7682814;22;96732;-64
2023/05/31 02:08:58;;;;;;;;;6.60;6.60;;;;;15.38;52.33;99355.81;7709089;22;96878;-63
2023/05/31 02:12:03;;;;;;;;;6.00;6.00;;;;;15.32;52.51;99356.75;7709825;22;96944;-63
2023/05/31 02:15:10;;;;;;;;;9.00;7.40;;;;;15.33;52.31;99356.53;7709571;22;96616;-64
2023/05/31 02:18:16;;;;;;;;;9.00;9.00;;;;;15.30;52.38;99354.28;7683019;22;98558;-64
2023/05/31 02:21:21;;;;;;;;;8.50;7.50;;;;;15.29;52.40;99352.66;7708074;22;96868;-64
2023/05/31 02:24:28;;;;;;;;;8.00;8.00;;;;;15.28;52.57;99352.88;7708096;22;96462;-64
2023/05/31 02:27:31;;;;;;;;;8.60;8.60;;;;;15.21;52.39;99347.56;7735335;22;96203;-64
2023/05/31 02:30:38;;;;;;;;;7.00;6.50;;;;;15.16;52.61;99345.59;7736324;22;96883;-64
2023/05/31 02:33:41;;;;;;;;;7.40;7.00;;;;;15.16;52.71;99347.47;7736213;22;96396;-65
2023/05/31 02:36:45;;;;;;;;;8.00;8.00;;;;;15.15;53.18;99340.38;7708519;22;98871;-64
2023/05/31 02:39:49;;;;;;;;;6.00;6.00;;;;;15.16;53.33;99342.88;7736995;22;96272;-64
2023/05/31 02:42:52;;;;;;;;;6.50;6.50;;;;;15.13;53.57;99346.06;7709100;22;96156;-64
2023/05/31 02:46:01;;;;;;;;;6.00;5.50;;;;;15.13;53.38;99351.50;7736352;22;96668;-64
2023/05/31 02:49:05;;;;;;;;;7.00;7.00;;;;;15.07;54.05;99354.34;7708831;22;96391;-64
2023/05/31 02:52:10;;;;;;;;;8.00;8.00;;;;;15.04;54.05;99347.53;7709272;22;97062;-63
2023/05/31 02:55:40;;;;;;;;;6.00;6.00;;;;;15.00;54.45;99353.66;7735414;22;96202;-64
2023/05/31 02:58:59;;;;;;;;;8.00;7.50;;;;;14.89;54.85;99354.50;7736894;22;96472;-64
2023/05/31 03:02:36;;;;;;;;;8.00;7.00;;;;;14.92;55.42;99357.56;7717112;22;98768;-64
2023/05/31 03:05:52;;;;;;;;;10.00;9.00;;;;;14.87;55.70;99354.72;7709488;22;97229;-65
2023/05/31 03:08:55;;;;;;;;;11.00;10.40;;;;;14.78;55.81;99360.75;7736688;22;96383;-64
2023/05/31 03:11:59;;;;;;;;;7.20;6.00;;;;;14.74;56.07;99366.69;7736863;22;96693;-64
2023/05/31 03:15:03;;;;;;;;;9.00;8.00;;;;;14.74;55.75;99372.09;7682995;22;98502;-64
2023/05/31 03:18:09;;;;;;;;;7.75;7.00;;;;;14.67;56.30;99371.38;7736887;22;96265;-64
2023/05/31 03:21:15;;;;;;;;;9.00;9.00;;;;;14.72;56.31;99368.78;7710290;22;96352;-64
2023/05/31 03:24:18;;;;;;;;;10.00;10.00;;;;;14.78;56.44;99372.44;7736245;22;96217;-64
2023/05/31 03:27:24;;;;;;;;;8.00;6.60;;;;;14.89;56.29;99385.19;7737197;22;96167;-64
2023/05/31 03:30:27;;;;;;;;;8.60;8.60;;;;;15.01;56.49;99382.44;7736096;22;96449;-65
2023/05/31 03:33:36;;;;;;;;;9.60;9.00;;;;;15.13;56.72;99389.53;7710626;22;96270;-65
2023/05/31 03:36:40;;;;;;;;;12.00;11.00;;;;;15.27;56.21;99392.81;7736093;22;96409;-64
2023/05/31 03:40:12;;;;;;;;;12.00;10.40;;;;;15.41;55.90;99396.06;7709973;22;97161;-64
2023/05/31 03:43:15;;;;;;;;;10.25;10.25;;;;;15.55;55.68;99397.47;7710470;22;96218;-64
2023/05/31 03:46:19;;;;;;;;;10.60;10.00;;;;;15.65;55.75;99405.84;7682212;22;96593;-64
2023/05/31 03:49:25;;;;;;;;;9.00;9.00;;;;;15.79;55.63;99395.50;7683687;22;96750;-64
2023/05/31 03:52:29;;;;;;;;;11.00;10.00;;;;;15.94;54.92;99403.94;7734717;22;96306;-64
2023/05/31 03:55:32;;;;;;;;;11.75;10.75;;;;;16.07;54.71;99406.38;7734884;22;96556;-64
2023/05/31 03:58:35;;;;;;;;;8.25;7.75;;;;;16.15;54.01;99391.53;7709423;22;98861;-64
2023/05/31 04:01:40;;;;;;;;;11.50;11.50;;;;;16.40;53.74;99411.84;7707135;22;96566;-64
2023/05/31 04:04:44;;;;;;;;;8.00;8.00;;;;;16.38;53.59;99408.53;7708568;22;96970;-64
2023/05/31 04:07:48;;;;;;;;;11.00;10.00;;;;;16.41;53.43;99408.06;7710595;22;96256;-61
2023/05/31 04:10:51;;;;;;;;;8.00;7.00;;;;;16.44;53.49;99410.28;7709832;22;97777;-61
2023/05/31 04:13:54;;;;;;;;;11.40;11.00;;;;;16.51;53.17;99406.56;7710669;22;97031;-61
2023/05/31 04:16:59;;;;;;;;;9.00;8.00;;;;;16.51;52.79;99401.13;7683356;22;96626;-61
2023/05/31 04:20:07;;;;;;;;;8.00;8.00;;;;;16.51;53.10;99399.25;7709382;22;96299;-61
2023/05/31 04:23:11;;;;;;;;;8.00;7.00;;;;;16.62;52.45;99401.06;7736621;22;96416;-62
2023/05/31 04:26:16;;;;;;;;;9.60;8.60;;;;;16.74;51.64;99390.91;7735764;22;96236;-61
2023/05/31 04:29:22;;;;;;;;;11.00;10.00;;;;;16.88;51.17;99396.84;7735524;22;96363;-62
2023/05/31 04:32:26;;;;;;;;;9.60;8.60;;;;;17.02;50.11;99400.00;7708776;22;97069;-61
2023/05/31 04:35:34;;;;;;;;;7.00;6.60;;;;;17.27;49.93;99401.19;7708883;22;97327;-62
2023/05/31 04:38:38;;;;;;;;;9.40;9.00;;;;;17.55;49.81;99396.63;7709075;22;97921;-62
2023/05/31 04:41:42;;;;;;;;;8.40;7.40;;;;;17.80;49.47;99399.69;7707702;22;96485;-62
2023/05/31 04:44:46;;;;;;;;;7.40;7.00;;;;;18.08;47.27;99401.34;7705517;22;96610;-63
2023/05/31 04:47:50;;;;;;;;;7.50;7.00;;;;;18.32;45.53;99408.13;7706391;22;96073;-63
2023/05/31 04:50:56;;;;;;;;;8.00;7.00;;;;;18.54;44.26;99408.88;7707956;22;96368;-60
2023/05/31 04:54:00;;;;;;;;;9.00;8.25;;;;;18.72;43.61;99391.25;7683122;22;97854;-61
2023/05/31 04:57:05;;;;;;;;;10.00;8.60;;;;;18.96;43.56;99397.19;7683644;22;96732;-62
2023/05/31 05:00:10;;;;;;;;;8.00;7.00;;;;;19.13;43.02;99411.47;7735945;22;96322;-61
2023/05/31 05:03:21;;;;;;;;;7.75;7.75;;;;;19.32;42.38;99406.38;7684379;22;96599;-61
2023/05/31 05:06:27;;;;;;;;;11.00;10.00;;;;;19.52;42.62;99403.78;7681812;22;96607;-61
2023/05/31 05:09:31;;;;;;;;;8.40;8.40;;;;;19.70;40.90;99403.28;7734203;22;96418;-62
2023/05/31 05:12:34;;;;;;;;;7.80;6.40;;;;;19.85;40.40;99408.81;7709065;22;98145;-61
2023/05/31 05:15:38;;;;;;;;;8.00;7.40;;;;;19.97;39.79;99408.56;7710024;22;96345;-61
2023/05/31 05:18:42;;;;;;;;;9.00;8.00;;;;;20.12;40.36;99411.34;7708838;22;97589;-61
2023/05/31 05:21:47;;;;;;;;;7.00;7.00;;;;;20.33;40.12;99408.69;7735368;22;96705;-61
2023/05/31 05:24:51;;;;;;;;;11.00;10.00;;;;;20.48;39.68;99412.22;7708369;22;98283;-61
2023/05/31 05:27:55;;;;;;;;;8.20;7.80;;;;;20.63;38.89;99408.66;7709450;22;96301;-62
2023/05/31 05:31:00;;;;;;;;;9.00;9.00;;;;;20.65;38.06;99409.22;7708188;22;96614;-61
2023/05/31 05:34:09;;;;;;;;;12.50;12.00;;;;;20.66;37.51;99417.16;7683097;22;98289;-61
2023/05/31 05:37:14;;;;;;;;;11.00;9.60;;;;;20.72;37.29;99418.78;7709340;22;97009;-61
2023/05/31 05:40:18;;;;;;;;;13.60;12.00;;;;;20.81;37.24;99408.13;7707920;22;97485;-61
2023/05/31 05:43:22;;;;;;;;;11.00;10.00;;;;;20.82;36.22;99415.22;7707605;22;96699;-61
2023/05/31 05:46:39;;;;;;;;;10.60;9.60;;;;;20.98;36.06;99411.38;7734201;22;96329;-64
2023/05/31 05:49:43;;;;;;;;;10.20;8.00;;;;;21.07;36.76;99409.69;7708313;22;98207;-62
2023/05/31 05:52:48;;;;;;;;;9.80;8.20;;;;;21.26;36.69;99409.16;7707470;22;96212;-61
2023/05/31 05:55:52;;;;;;;;;9.00;9.00;;;;;21.38;36.01;99409.66;7681841;22;96617;-61
2023/05/31 05:59:01;;;;;;;;;12.00;12.00;;;;;21.41;36.21;99420.06;7732666;22;97216;-61
2023/05/31 06:02:23;;;;;;;;;10.80;10.00;;;;;21.53;36.64;99418.66;7707971;22;96742;-62
2023/05/31 06:05:29;;;;;;;;;10.00;10.00;;;;;21.63;36.31;99419.72;7734852;22;96634;-61
2023/05/31 06:08:34;;;;;;;;;9.00;8.67;;;;;21.71;35.70;99414.47;7708890;22;96947;-61
2023/05/31 06:11:37;;;;;;;;;11.00;9.00;;;;;21.86;37.39;99421.78;7709394;22;96159;-61
2023/05/31 06:14:41;;;;;;;;;9.00;9.00;;;;;21.99;36.74;99418.47;7709447;22;96205;-62
2023/05/31 06:17:45;;;;;;;;;10.00;9.00;;;;;22.15;36.27;99421.94;7683767;22;98346;-62
2023/05/31 06:20:48;;;;;;;;;11.00;10.00;;;;;22.21;35.77;99421.63;7733370;22;97228;-61
2023/05/31 06:23:53;;;;;;;;;11.00;10.75;;;;;22.37;34.50;99414.94;7708958;22;96606;-61
2023/05/31 06:26:56;;;;;;;;;11.00;10.00;;;;;22.35;35.93;99417.13;7708102;22;96491;-62
2023/05/31 06:30:05;;;;;;;;;8.60;8.60;;;;;22.53;35.21;99420.31;7708627;22;97418;-62
2023/05/31 06:33:17;;;;;;;;;12.00;11.00;;;;;22.55;34.39;99405.16;7709532;22;96302;-61
2023/05/31 06:36:20;;;;;;;;;11.40;11.00;;;;;22.56;33.88;99417.81;7705842;22;96833;-63
2023/05/31 06:39:25;;;;;;;;;10.00;10.00;;;;;22.61;34.37;99416.94;7733998;22;96834;-61
2023/05/31 06:42:29;;;;;;;;;9.40;9.00;;;;;22.82;35.15;99415.69;7735624;22;97010;-62
2023/05/31 06:45:32;;;;;;;;;8.60;7.60;;;;;23.01;33.83;99424.84;7737841;22;96432;-62
2023/05/31 06:48:56;;;;;;;;;10.00;9.00;;;;;23.11;34.48;99415.69;7718301;22;96767;-61
2023/05/31 06:52:33;;;;;;;;;8.40;7.60;;;;;23.46;33.47;99418.03;7674308;22;96438;-61
2023/05/31 06:56:05;;;;;;;;;8.00;7.60;;;;;23.64;32.49;99420.06;7700567;22;96946;-61
2023/05/31 06:59:09;;;;;;;;;9.00;9.00;;;;;23.69;31.78;99419.16;7736319;22;96813;-61
2023/05/31 07:02:12;;;;;;;;;8.00;8.00;;;;;23.78;33.11;99419.31;7709496;22;98280;-61
2023/05/31 07:05:16;;;;;;;;;7.60;6.60;;;;;23.94;32.62;99421.59;7709028;22;98368;-62
2023/05/31 07:08:22;;;;;;;;;7.00;7.00;;;;;24.16;33.39;99421.00;7734502;22;97572;-62
2023/05/31 07:11:47;;;;;;;;;10.00;9.00;;;;;24.32;32.99;99416.09;7720620;22;96323;-62
2023/05/31 07:14:51;;;;;;;;;10.40;10.00;;;;;24.44;32.36;99419.22;7732493;22;97019;-61
2023/05/31 07:17:54;;;;;;;;;8.75;8.00;;;;;24.67;32.06;99420.25;7709688;22;96906;-61
2023/05/31 07:20:58;;;;;;;;;9.60;8.00;;;;;24.63;30.04;99420.00;7734868;22;96809;-61
2023/05/31 07:24:03;;;;;;;;;7.00;7.00;;;;;24.68;30.39;99425.44;7735850;22;96514;-61
2023/05/31 07:27:08;;;;;;;;;10.00;9.00;;;;;24.39;30.35;99414.59;7735205;22;96984;-61
2023/05/31 07:30:12;;;;;;;;;10.00;9.00;;;;;24.44;30.56;99413.69;7734334;22;96747;-62
2023/05/31 07:33:15;;;;;;;;;7.00;6.20;;;;;24.66;31.94;99411.16;7680269;22;96576;-61
2023/05/31 07:36:30;;;;;;;;;7.00;6.20;;;;;25.10;31.33;99405.16;7704842;22;96425;-61
2023/05/31 07:39:34;;;;;;;;;10.00;9.00;;;;;25.46;31.21;99406.06;7734450;22;96197;-61
2023/05/31 07:42:38;;;;;;;;;8.00;8.00;;;;;25.83;31.69;99410.59;7733730;22;96343;-61
2023/05/31 07:45:42;;;;;;;;;5.25;5.25;;;;;26.13;30.50;99403.56;7734040;22;96925;-61
2023/05/31 07:48:45;;;;;;;;;7.60;7.60;;;;;26.22;28.53;99403.69;7734903;22;96492;-61
2023/05/31 07:51:48;;;;;;;;;7.00;7.00;;;;;26.27;29.42;99406.31;7732462;22;96410;-61
2023/05/31 07:54:52;;;;;;;;;6.00;6.00;;;;;26.48;29.65;99404.72;7733406;22;98328;-61
2023/05/31 07:57:57;;;;;;;;;6.00;5.00;;;;;26.62;28.55;99404.66;7733391;22;96522;-61
2023/05/31 08:01:01;;;;;;;;;5.75;5.75;;;;;26.77;29.46;99395.97;7735126;22;96835;-61
2023/05/31 08:04:07;;;;;;;;;5.00;4.00;;;;;27.10;29.58;99407.56;7735576;22;96246;-62
2023/05/31 08:07:11;;;;;;;;;5.00;5.00;;;;;27.36;27.76;99407.69;7732667;22;96823;-61
2023/05/31 08:10:14;;;;;;;;;7.00;6.80;;;;;27.65;28.42;99407.19;7735165;22;96500;-61
2023/05/31 08:13:19;;;;;;;;;5.00;5.00;;;;;27.71;27.22;99403.91;7736373;22;96199;-61
2023/05/31 08:16:22;;;;;;;;;7.40;7.40;;;;;27.40;25.53;99386.53;7707604;22;98736;-62
2023/05/31 08:19:26;;;;;;;;;7.00;7.00;;;;;27.63;28.02;99390.06;7683118;22;96683;-62
2023/05/31 08:22:30;;;;;;;;;5.00;5.00;;;;;27.68;26.95;99398.22;7736889;22;96229;-61
2023/05/31 08:25:34;;;;;;;;;5.20;4.80;;;;;27.87;26.71;99398.75;7682563;22;96491;-61
2023/05/31 08:28:38;;;;;;;;;6.40;6.00;;;;;28.11;26.41;99390.81;7735684;22;96284;-61
2023/05/31 08:31:42;;;;;;;;;6.00;6.00;;;;;28.42;26.63;99399.00;7736280;22;96383;-63
2023/05/31 08:34:45;;;;;;;;;6.00;5.00;;;;;28.62;26.34;99391.94;7709256;22;96098;-62
2023/05/31 08:37:49;;;;;;;;;6.40;6.40;;;;;28.58;23.60;99388.22;7736949;22;96408;-61
2023/05/31 08:40:52;;;;;;;;;6.60;6.00;;;;;28.61;24.55;99390.31;7736614;22;96195;-62
2023/05/31 08:43:57;;;;;;;;;5.00;4.20;;;;;28.56;23.63;99387.72;7735723;22;97469;-61
2023/05/31 08:47:09;;;;;;;;;5.60;4.40;;;;;28.73;25.06;99387.72;7736695;22;96452;-62
2023/05/31 08:50:13;;;;;;;;;7.00;7.00;;;;;28.93;25.46;99380.66;7736540;22;97045;-62
2023/05/31 08:53:18;;;;;;;;;6.00;6.00;;;;;28.99;22.58;99393.19;7709906;22;96949;-61
2023/05/31 08:56:23;;;;;;;;;5.00;4.25;;;;;28.84;24.11;99391.75;7737634;22;96192;-61
2023/05/31 08:59:28;;;;;;;;;8.00;7.00;;;;;28.55;23.33;99392.44;7737456;22;96181;-61
2023/05/31 09:02:32;;;;;;;;;7.00;6.50;;;;;28.73;25.56;99387.72;7709931;22;96517;-61
2023/05/31 09:05:35;;;;;;;;;4.00;4.00;;;;;28.99;24.35;99374.59;7734208;22;98758;-61
2023/05/31 09:08:39;;;;;;;;;6.00;5.00;;;;;29.29;24.46;99386.56;7737064;22;96230;-61
2023/05/31 09:11:42;;;;;;;;;3.00;3.00;;;;;29.10;22.09;99391.69;7736945;22;96340;-61
2023/05/31 09:14:47;;;;;;;;;4.00;4.00;;;;;29.16;23.35;99393.16;7737128;22;96300;-61
2023/05/31 09:17:51;;;;;;;;;5.00;5.00;;;;;29.25;22.45;99388.38;7736387;22;96687;-61
2023/05/31 09:20:55;;;;;;;;;6.00;4.00;;;;;28.71;23.07;99392.75;7710603;22;96639;-61
2023/05/31 09:23:59;;;;;;;;;3.00;3.00;;;;;28.47;22.03;99379.41;7738079;22;96350;-61
2023/05/31 09:27:03;;;;;;;;;6.00;5.00;;;;;28.69;23.31;99393.06;7737611;22;96409;-62
2023/05/31 09:30:11;;;;;;;;;5.00;4.80;;;;;28.18;23.88;99382.84;7735386;22;96380;-62
2023/05/31 09:33:15;;;;;;;;;5.00;5.00;;;;;28.20;23.70;99386.09;7737507;22;96390;-61
2023/05/31 09:36:25;;;;;;;;;5.00;4.60;;;;;28.40;24.04;99384.63;7709675;22;96257;-61
2023/05/31 09:39:28;;;;;;;;;6.00;5.00;;;;;28.81;23.58;99373.84;7709564;22;96623;-61
2023/05/31 09:42:32;;;;;;;;;6.00;6.00;;;;;28.86;25.34;99378.38;7708790;22;96562;-61
2023/05/31 09:45:37;;;;;;;;;7.00;6.25;;;;;28.77;22.87;99377.59;7736432;22;96335;-63
2023/05/31 09:48:41;;;;;;;;;4.00;4.00;;;;;29.03;24.09;99377.53;7736847;22;96819;-61
2023/05/31 09:51:51;;;;;;;;;6.00;6.00;;;;;29.31;23.50;99381.53;7735688;22;97057;-61
2023/05/31 09:54:57;;;;;;;;;5.00;5.00;;;;;29.11;23.00;99373.91;7735642;22;96995;-61
2023/05/31 09:58:00;;;;;;;;;6.00;5.00;;;;;29.31;24.22;99369.59;7735138;22;96670;-61
2023/05/31 10:01:05;;;;;;;;;4.00;4.00;;;;;29.69;24.08;99373.97;7736608;22;96385;-63
2023/05/31 10:04:09;;;;;;;;;6.00;5.00;;;;;30.02;24.40;99376.88;7737498;22;96303;-61
2023/05/31 10:07:13;;;;;;;;;5.80;5.80;;;;;30.22;22.81;99360.53;7737159;22;96322;-61
2023/05/31 10:10:20;;;;;;;;;6.00;5.00;;;;;30.25;23.72;99354.31;7709297;22;96374;-61
2023/05/31 10:13:27;;;;;;;;;5.00;4.00;;;;;29.68;21.45;99357.63;7735529;22;96449;-66
2023/05/31 10:16:39;;;;;;;;;5.60;5.60;;;;;29.72;22.33;99350.25;7707388;22;97404;-68
2023/05/31 10:19:57;;;;;;;;;6.40;5.40;;;;;29.86;23.11;99355.56;7683605;22;97166;-67
2023/05/31 10:23:03;;;;;;;;;5.00;5.00;;;;;29.87;23.06;99349.66;7736645;22;96935;-67
2023/05/31 10:26:13;;;;;;;;;7.00;7.00;;;;;30.03;22.02;99328.47;7737370;22;96408;-67
2023/05/31 10:29:20;;;;;;;;;6.00;5.00;;;;;30.17;21.91;99330.16;7710727;22;97029;-68
2023/05/31 10:32:27;;;;;;;;;6.80;6.20;;;;;29.87;22.14;99337.72;7708332;22;97029;-67
2023/05/31 10:35:30;;;;;;;;;6.60;6.60;;;;;29.96;24.04;99338.50;7735290;22;96487;-67
2023/05/31 10:38:43;;;;;;;;;8.20;7.00;;;;;30.16;22.71;99332.13;7737108;22;96362;-68
2023/05/31 10:41:54;;;;;;;;;7.00;7.00;;;;;29.87;22.42;99329.38;7737147;22;97634;-67
2023/05/31 10:45:06;;;;;;;;;4.80;4.00;;;;;30.13;24.22;99330.84;7736494;22;96357;-68
2023/05/31 10:48:20;;;;;;;;;6.00;4.33;;;;;30.47;22.59;99335.31;7735999;22;96407;-68
2023/05/31 10:51:41;;;;;;;;;6.00;6.00;;;;;30.76;21.01;99330.75;7736411;22;96424;-67
2023/05/31 10:54:44;;;;;;;;;5.00;5.00;;;;;30.79;22.33;99327.28;7709597;22;97559;-68
2023/05/31 10:57:51;;;;;;;;;8.00;8.00;;;;;30.51;21.85;99313.97;7736401;22;96389;-67
2023/05/31 11:00:56;;;;;;;;;5.75;5.00;;;;;30.12;21.23;99318.09;7708167;22;97184;-66
2023/05/31 11:04:01;;;;;;;;;5.00;5.00;;;;;29.74;21.47;99303.47;7707440;22;96378;-67
2023/05/31 11:07:14;;;;;;;;;6.50;6.00;;;;;29.90;22.45;99318.44;7732078;22;96443;-65
2023/05/31 11:10:28;;;;;;;;;6.00;6.00;;;;;29.70;22.05;99311.69;7708950;22;97425;-67
2023/05/31 11:13:56;;;;;;;;;5.80;4.00;;;;;29.76;22.92;99295.63;7734972;22;96273;-66
2023/05/31 11:17:16;;;;;;;;;6.00;5.00;;;;;30.12;22.58;99300.56;7734576;22;96809;-68
2023/05/31 11:20:21;;;;;;;;;4.00;4.00;;;;;30.51;22.78;99302.03;7708338;22;96480;-67
2023/05/31 11:23:30;;;;;;;;;4.00;4.00;;;;;30.90;20.90;99295.03;7707207;22;98339;-68
2023/05/31 11:26:51;;;;;;;;;5.40;5.00;;;;;30.98;20.18;99288.56;7706553;22;96925;-67
2023/05/31 11:30:01;;;;;;;;;5.00;4.00;;;;;30.71;20.61;99284.44;7736361;22;99193;-66
2023/05/31 11:33:15;;;;;;;;;5.40;5.00;;;;;30.85;22.17;99278.56;7736719;22;97442;-68
2023/05/31 11:36:19;;;;;;;;;4.60;4.00;;;;;31.08;22.83;99292.88;7709246;22;96430;-68
2023/05/31 11:39:23;;;;;;;;;7.00;5.00;;;;;31.29;22.01;99277.66;7738293;22;96931;-67
2023/05/31 11:42:30;;;;;;;;;5.00;5.00;;;;;31.48;21.05;99279.84;7709948;22;96758;-68
2023/05/31 11:45:35;;;;;;;;;3.60;3.00;;;;;31.63;20.87;99272.75;7737661;22;96321;-68
2023/05/31 11:48:45;;;;;;;;;6.00;5.00;;;;;31.86;21.65;99267.50;7737406;22;96419;-68
2023/05/31 11:51:50;;;;;;;;;5.75;5.75;;;;;31.60;20.08;99270.69;7736048;22;96196;-67
2023/05/31 11:54:54;;;;;;;;;5.00;5.00;;;;;31.54;20.40;99263.69;7736593;22;96673;-68
2023/05/31 11:57:59;;;;;;;;;4.60;4.60;;;;;31.56;21.97;99276.16;7736037;22;96244;-67
2023/05/31 12:01:02;;;;;;;;;6.00;5.00;;;;;31.65;22.77;99270.44;7735893;22;96404;-68
2023/05/31 12:04:06;;;;;;;;;3.60;3.40;;;;;31.82;20.95;99259.00;7737960;22;96089;-68
2023/05/31 12:07:13;;;;;;;;;5.00;5.00;;;;;31.87;21.47;99264.34;7710805;22;96813;-68
2023/05/31 12:10:17;;;;;;;;;6.00;6.00;;;;;31.97;21.81;99263.03;7735830;22;99315;-68
2023/05/31 12:13:20;;;;;;;;;5.25;5.00;;;;;32.04;22.26;99257.66;7738173;22;96226;-68
2023/05/31 12:16:23;;;;;;;;;6.00;5.00;;;;;32.16;21.95;99254.84;7736401;22;97621;-68
2023/05/31 12:19:27;;;;;;;;;6.40;5.00;;;;;32.22;20.86;99250.63;7737679;22;96362;-68
2023/05/31 12:22:32;;;;;;;;;6.00;6.00;;;;;32.05;20.62;99248.13;7737967;22;96254;-68
2023/05/31 12:25:35;;;;;;;;;5.00;4.60;;;;;31.97;21.30;99241.53;7736009;22;96314;-68
2023/05/31 12:28:38;;;;;;;;;5.40;5.00;;;;;32.00;21.62;99243.63;7737002;22;96452;-67
2023/05/31 12:31:42;;;;;;;;;6.00;5.60;;;;;32.11;21.17;99247.53;7736905;22;96191;-68
2023/05/31 12:34:47;;;;;;;;;5.20;5.20;;;;;32.27;21.84;99242.00;7736974;22;96280;-67
2023/05/31 12:37:53;;;;;;;;;5.40;5.40;;;;;32.07;19.77;99234.63;7736211;22;96453;-61
2023/05/31 12:40:57;;;;;;;;;6.00;6.00;;;;;31.56;20.92;99228.78;7706386;22;96605;-62
2023/05/31 12:44:00;;;;;;;;;6.00;6.00;;;;;31.35;22.31;99245.63;7708904;22;96536;-61
2023/05/31 12:47:07;;;;;;;;;4.00;4.00;;;;;31.46;21.33;99234.81;7735724;22;96350;-61
2023/05/31 12:50:11;;;;;;;;;6.00;6.00;;;;;31.55;22.88;99215.97;7737009;22;96405;-61
2023/05/31 12:53:16;;;;;;;;;5.40;4.40;;;;;31.77;20.58;99223.00;7737128;22;96560;-62
2023/05/31 12:56:20;;;;;;;;;5.00;5.00;;;;;31.88;21.74;99215.78;7735655;22;96185;-61
2023/05/31 12:59:25;;;;;;;;;5.40;5.00;;;;;31.78;22.01;99221.84;7710211;22;96640;-61
2023/05/31 13:02:29;;;;;;;;;5.80;5.00;;;;;31.81;21.32;99208.00;7736209;22;96333;-61
2023/05/31 13:05:32;;;;;;;;;8.00;6.00;;;;;31.76;21.80;99213.03;7707742;22;96680;-61
2023/05/31 13:08:37;;;;;;;;;6.00;6.00;;;;;31.91;21.27;99211.47;7708814;22;99092;-62
2023/05/31 13:11:41;;;;;;;;;6.00;5.25;;;;;31.96;20.68;99216.81;7708822;22;96402;-62
2023/05/31 13:14:45;;;;;;;;;5.00;5.00;;;;;32.04;21.31;99204.66;7736688;22;96411;-61
2023/05/31 13:17:48;;;;;;;;;5.00;5.00;;;;;32.15;21.15;99203.03;7736960;22;96688;-61
2023/05/31 13:20:52;;;;;;;;;4.80;4.00;;;;;32.10;20.42;99204.09;7737518;22;96357;-61
2023/05/31 13:23:57;;;;;;;;;5.40;4.40;;;;;32.03;20.44;99192.69;7709807;22;96347;-61
2023/05/31 13:27:00;;;;;;;;;3.60;3.00;;;;;32.16;21.66;99196.25;7736524;22;96198;-62
2023/05/31 13:30:04;;;;;;;;;4.50;4.50;;;;;32.02;20.99;99190.25;7737375;22;96768;-61
2023/05/31 13:33:08;;;;;;;;;3.80;3.00;;;;;32.04;21.71;99194.31;7708700;22;98446;-61
2023/05/31 13:36:11;;;;;;;;;9.80;9.00;;;;;32.01;21.87;99195.03;7709095;22;96966;-61
2023/05/31 13:39:16;;;;;;;;;7.00;7.00;;;;;32.10;21.07;99194.88;7737276;22;96645;-62
2023/05/31 13:42:19;;;;;;;;;6.00;5.00;;;;;31.96;20.18;99181.34;7735188;22;96161;-62
2023/05/31 13:45:23;;;;;;;;;7.40;6.00;;;;;31.95;21.55;99190.06;7735420;22;96718;-62
2023/05/31 13:48:26;;;;;;;;;6.00;5.00;;;;;31.98;21.05;99192.13;7734683;22;96488;-61
2023/05/31 13:51:30;;;;;;;;;5.00;5.00;;;;;31.87;20.24;99180.69;7733479;22;96385;-61
2023/05/31 13:54:34;;;;;;;;;6.00;5.00;;;;;31.72;21.95;99173.06;7732315;22;96638;-62
2023/05/31 13:57:38;;;;;;;;;6.00;5.50;;;;;31.56;22.25;99167.47;7735983;22;96164;-61
2023/05/31 14:00:41;;;;;;;;;4.20;4.20;;;;;31.44;22.37;99166.66;7710137;22;96345;-61
2023/05/31 14:03:57;;;;;;;;;6.50;6.25;;;;;31.45;23.52;99179.44;7709459;22;96559;-61
2023/05/31 14:07:01;;;;;;;;;5.60;5.60;;;;;31.44;23.07;99166.66;7736374;22;96342;-61
2023/05/31 14:10:07;;;;;;;;;4.00;4.00;;;;;31.12;23.63;99165.69;7709830;22;96712;-61
2023/05/31 14:13:10;;;;;;;;;5.75;5.75;;;;;30.88;23.39;99167.34;7734392;22;96300;-61
2023/05/31 14:16:14;;;;;;;;;5.00;5.00;;;;;30.75;22.39;99165.69;7735860;22;96801;-62
2023/05/31 14:19:17;;;;;;;;;7.00;7.00;;;;;30.78;22.59;99158.63;7708723;22;96317;-63
2023/05/31 14:22:21;;;;;;;;;5.40;4.40;;;;;30.74;23.13;99161.28;7735087;22;96610;-61
2023/05/31 14:25:25;;;;;;;;;4.80;4.00;;;;;30.72;22.85;99151.66;7708224;22;99126;-61
2023/05/31 14:28:29;;;;;;;;;7.00;7.00;;;;;30.62;23.35;99157.69;7735438;22;96794;-62
2023/05/31 14:31:36;;;;;;;;;6.40;5.40;;;;;30.47;23.45;99162.78;7734305;22;96481;-61
2023/05/31 14:34:40;;;;;;;;;6.00;6.00;;;;;30.28;23.95;99158.91;7736540;22;96190;-61